sensor_id;sensor_type;location;lat;lon;timestamp;pressure;altitude;pressure_sealevel;temperature;humidity
48095;BME280;33874;52.070;-0.516;2023-04-30T00:00:13;101827.35;;;11.31;62.91
48095;BME280;33874;52.070;-0.516;2023-04-30T00:03:03;101826.59;;;11.29;63.06
48095;BME280;33874;52.070;-0.516;2023-04-30T00:05:35;101829.82;;;11.28;63.20
48095;BME280;33874;52.070;-0.516;2023-04-30T00:08:04;101833.30;;;11.26;63.21
48095;BME280;33874;52.070;-0.516;2023-04-30T00:10:34;101838.61;;;11.23;63.19
48095;BME280;33874;52.070;-0.516;2023-04-30T00:13:09;101837.42;;;11.15;63.29
48095;BME280;33874;52.070;-0.516;2023-04-30T00:15:46;101837.86;;;11.12;63.43
48095;BME280;33874;52.070;-0.516;2023-04-30T00:18:17;101838.92;;;11.11;63.76
48095;BME280;33874;52.070;-0.516;2023-04-30T00:20:46;101840.09;;;11.12;63.83
48095;BME280;33874;52.070;-0.516;2023-04-30T00:23:18;101842.36;;;11.12;63.90
48095;BME280;33874;52.070;-0.516;2023-04-30T00:25:58;101840.95;;;11.10;64.00
48095;BME280;33874;52.070;-0.516;2023-04-30T00:31:30;101832.54;;;11.04;64.23
48095;BME280;33874;52.070;-0.516;2023-04-30T00:34:02;101828.91;;;11.01;64.28
48095;BME280;33874;52.070;-0.516;2023-04-30T00:36:33;101827.23;;;10.97;64.50
48095;BME280;33874;52.070;-0.516;2023-04-30T00:39:03;101826.90;;;10.94;64.62
48095;BME280;33874;52.070;-0.516;2023-04-30T00:41:38;101830.33;;;10.91;64.68
48095;BME280;33874;52.070;-0.516;2023-04-30T00:44:12;101827.06;;;10.87;64.90
48095;BME280;33874;52.070;-0.516;2023-04-30T00:46:43;101831.93;;;10.85;65.04
48095;BME280;33874;52.070;-0.516;2023-04-30T00:49:31;101826.86;;;10.85;65.28
48095;BME280;33874;52.070;-0.516;2023-04-30T00:52:00;101824.29;;;10.84;65.31
48095;BME280;33874;52.070;-0.516;2023-04-30T00:54:30;101825.37;;;10.83;65.46
48095;BME280;33874;52.070;-0.516;2023-04-30T00:57:00;101825.14;;;10.82;65.55
48095;BME280;33874;52.070;-0.516;2023-04-30T00:59:45;101820.90;;;10.82;65.71
48095;BME280;33874;52.070;-0.516;2023-04-30T01:02:19;101823.34;;;10.82;65.83
48095;BME280;33874;52.070;-0.516;2023-04-30T01:04:50;101823.19;;;10.82;65.92
48095;BME280;33874;52.070;-0.516;2023-04-30T01:07:24;101825.53;;;10.81;66.00
48095;BME280;33874;52.070;-0.516;2023-04-30T01:10:05;101825.02;;;10.78;66.13
48095;BME280;33874;52.070;-0.516;2023-04-30T01:16:04;101822.08;;;10.67;66.18
48095;BME280;33874;52.070;-0.516;2023-04-30T01:19:08;101820.59;;;10.61;66.42
48095;BME280;33874;52.070;-0.516;2023-04-30T01:21:45;101821.02;;;10.57;66.43
48095;BME280;33874;52.070;-0.516;2023-04-30T01:24:23;101825.24;;;10.54;66.56
48095;BME280;33874;52.070;-0.516;2023-04-30T01:30:14;101823.24;;;10.50;66.92
48095;BME280;33874;52.070;-0.516;2023-04-30T01:56:39;101812.31;;;10.55;67.19
48095;BME280;33874;52.070;-0.516;2023-04-30T02:15:34;101810.38;;;10.66;68.13
48095;BME280;33874;52.070;-0.516;2023-04-30T02:18:09;101813.58;;;10.69;68.22
48095;BME280;33874;52.070;-0.516;2023-04-30T02:20:55;101812.34;;;10.71;68.31
48095;BME280;33874;52.070;-0.516;2023-04-30T02:23:46;101811.93;;;10.72;68.36
48095;BME280;33874;52.070;-0.516;2023-04-30T02:27:07;101813.27;;;10.73;68.50
48095;BME280;33874;52.070;-0.516;2023-04-30T02:29:38;101809.11;;;10.74;68.73
48095;BME280;33874;52.070;-0.516;2023-04-30T02:32:48;101808.61;;;10.76;68.81
48095;BME280;33874;52.070;-0.516;2023-04-30T02:35:30;101810.89;;;10.77;68.87
48095;BME280;33874;52.070;-0.516;2023-04-30T02:38:43;101809.15;;;10.79;68.99
48095;BME280;33874;52.070;-0.516;2023-04-30T02:41:19;101810.44;;;10.80;69.02
48095;BME280;33874;52.070;-0.516;2023-04-30T02:44:18;101808.92;;;10.82;69.07
48095;BME280;33874;52.070;-0.516;2023-04-30T02:47:08;101803.26;;;10.83;69.08
48095;BME280;33874;52.070;-0.516;2023-04-30T02:54:02;101800.07;;;10.86;69.11
48095;BME280;33874;52.070;-0.516;2023-04-30T02:57:05;101798.50;;;10.85;68.98
48095;BME280;33874;52.070;-0.516;2023-04-30T03:00:12;101798.89;;;10.82;68.93
48095;BME280;33874;52.070;-0.516;2023-04-30T03:03:31;101796.14;;;10.79;68.92
48095;BME280;33874;52.070;-0.516;2023-04-30T03:06:53;101798.08;;;10.74;68.85
48095;BME280;33874;52.070;-0.516;2023-04-30T03:09:42;101795.65;;;10.68;68.66
48095;BME280;33874;52.070;-0.516;2023-04-30T03:16:16;101795.77;;;10.51;68.61
48095;BME280;33874;52.070;-0.516;2023-04-30T03:18:58;101798.53;;;10.44;68.61
48095;BME280;33874;52.070;-0.516;2023-04-30T03:21:42;101797.34;;;10.35;68.72
48095;BME280;33874;52.070;-0.516;2023-04-30T03:25:00;101798.71;;;10.28;68.80
48095;BME280;33874;52.070;-0.516;2023-04-30T03:31:07;101802.78;;;10.17;68.88
48095;BME280;33874;52.070;-0.516;2023-04-30T03:37:48;101798.89;;;10.01;69.04
48095;BME280;33874;52.070;-0.516;2023-04-30T03:44:47;101803.12;;;9.95;69.24
48095;BME280;33874;52.070;-0.516;2023-04-30T03:54:26;101808.42;;;9.90;69.38
48095;BME280;33874;52.070;-0.516;2023-04-30T04:01:07;101805.30;;;9.76;69.38
48095;BME280;33874;52.070;-0.516;2023-04-30T04:08:26;101808.96;;;9.71;69.78
48095;BME280;33874;52.070;-0.516;2023-04-30T04:15:05;101805.40;;;9.63;69.68
48095;BME280;33874;52.070;-0.516;2023-04-30T04:26:15;101805.52;;;9.50;69.63
48095;BME280;33874;52.070;-0.516;2023-04-30T04:34:16;101807.96;;;9.31;69.71
48095;BME280;33874;52.070;-0.516;2023-04-30T04:44:51;101811.69;;;9.25;70.22
48095;BME280;33874;52.070;-0.516;2023-04-30T05:11:25;101812.15;;;9.78;70.47
48095;BME280;33874;52.070;-0.516;2023-04-30T05:14:37;101819.27;;;9.88;70.22
48095;BME280;33874;52.070;-0.516;2023-04-30T05:17:49;101816.77;;;9.96;70.11
48095;BME280;33874;52.070;-0.516;2023-04-30T05:20:48;101813.91;;;10.05;70.13
48095;BME280;33874;52.070;-0.516;2023-04-30T05:24:11;101813.36;;;10.13;70.02
48095;BME280;33874;52.070;-0.516;2023-04-30T05:26:51;101813.88;;;10.22;70.00
48095;BME280;33874;52.070;-0.516;2023-04-30T05:32:48;101814.27;;;10.43;69.58
48095;BME280;33874;52.070;-0.516;2023-04-30T06:07:29;101801.48;;;16.09;61.57
48095;BME280;33874;52.070;-0.516;2023-04-30T06:10:17;101802.21;;;16.15;61.19
48095;BME280;33874;52.070;-0.516;2023-04-30T06:30:44;101795.75;;;17.72;57.66
48095;BME280;33874;52.070;-0.516;2023-04-30T06:49:34;101804.38;;;20.14;53.70
48095;BME280;33874;52.070;-0.516;2023-04-30T06:52:05;101804.58;;;20.71;52.87
48095;BME280;33874;52.070;-0.516;2023-04-30T06:54:35;101805.59;;;20.95;52.24
48095;BME280;33874;52.070;-0.516;2023-04-30T06:57:40;101806.30;;;21.04;51.63
48095;BME280;33874;52.070;-0.516;2023-04-30T07:00:18;101808.23;;;21.21;50.95
48095;BME280;33874;52.070;-0.516;2023-04-30T07:03:10;101805.94;;;21.42;50.26
48095;BME280;33874;52.070;-0.516;2023-04-30T07:20:48;101807.15;;;21.98;49.23
48095;BME280;33874;52.070;-0.516;2023-04-30T07:23:38;101809.39;;;22.28;49.06
48095;BME280;33874;52.070;-0.516;2023-04-30T07:26:06;101808.16;;;22.42;48.89
48095;BME280;33874;52.070;-0.516;2023-04-30T07:28:39;101809.23;;;22.49;48.27
48095;BME280;33874;52.070;-0.516;2023-04-30T07:31:12;101808.75;;;22.37;48.21
48095;BME280;33874;52.070;-0.516;2023-04-30T07:33:54;101808.94;;;22.33;48.20
48095;BME280;33874;52.070;-0.516;2023-04-30T07:36:22;101809.86;;;22.24;48.08
48095;BME280;33874;52.070;-0.516;2023-04-30T07:38:54;101808.06;;;22.30;48.05
48095;BME280;33874;52.070;-0.516;2023-04-30T07:41:23;101810.09;;;22.16;47.64
48095;BME280;33874;52.070;-0.516;2023-04-30T07:44:00;101810.54;;;21.80;47.99
48095;BME280;33874;52.070;-0.516;2023-04-30T07:46:29;101815.71;;;21.38;48.72
48095;BME280;33874;52.070;-0.516;2023-04-30T07:49:01;101819.84;;;20.99;49.49
48095;BME280;33874;52.070;-0.516;2023-04-30T07:58:00;101817.17;;;19.40;50.20
48095;BME280;33874;52.070;-0.516;2023-04-30T08:06:13;101810.86;;;18.45;52.50
48095;BME280;33874;52.070;-0.516;2023-04-30T08:08:42;101812.11;;;18.51;52.98
48095;BME280;33874;52.070;-0.516;2023-04-30T08:11:27;101812.36;;;18.50;52.98
48095;BME280;33874;52.070;-0.516;2023-04-30T08:14:06;101814.38;;;18.40;52.91
48095;BME280;33874;52.070;-0.516;2023-04-30T08:16:42;101814.12;;;18.33;52.92
48095;BME280;33874;52.070;-0.516;2023-04-30T08:19:15;101812.36;;;18.29;53.01
48095;BME280;33874;52.070;-0.516;2023-04-30T08:21:53;101810.02;;;18.29;53.37
48095;BME280;33874;52.070;-0.516;2023-04-30T08:28:31;101804.77;;;18.35;53.19
48095;BME280;33874;52.070;-0.516;2023-04-30T08:39:26;101806.67;;;18.46;53.46
48095;BME280;33874;52.070;-0.516;2023-04-30T08:46:13;101800.95;;;18.45;52.89
48095;BME280;33874;52.070;-0.516;2023-04-30T08:49:08;101803.41;;;18.47;52.76
48095;BME280;33874;52.070;-0.516;2023-04-30T08:51:43;101800.11;;;18.44;52.50
48095;BME280;33874;52.070;-0.516;2023-04-30T08:58:13;101800.36;;;18.42;52.80
48095;BME280;33874;52.070;-0.516;2023-04-30T09:01:02;101799.98;;;18.44;52.79
48095;BME280;33874;52.070;-0.516;2023-04-30T09:03:55;101800.64;;;18.49;52.91
48095;BME280;33874;52.070;-0.516;2023-04-30T09:06:29;101803.38;;;18.63;52.89
48095;BME280;33874;52.070;-0.516;2023-04-30T09:20:57;101789.83;;;19.19;51.81
48095;BME280;33874;52.070;-0.516;2023-04-30T09:31:00;101786.19;;;19.19;50.50
48095;BME280;33874;52.070;-0.516;2023-04-30T09:33:44;101780.48;;;19.22;50.34
48095;BME280;33874;52.070;-0.516;2023-04-30T09:36:20;101782.24;;;19.29;50.25
48095;BME280;33874;52.070;-0.516;2023-04-30T09:39:04;101776.15;;;19.25;50.12
48095;BME280;33874;52.070;-0.516;2023-04-30T09:41:38;101770.16;;;19.21;49.78
48095;BME280;33874;52.070;-0.516;2023-04-30T09:44:06;101768.12;;;19.19;50.15
48095;BME280;33874;52.070;-0.516;2023-04-30T09:46:38;101768.02;;;19.24;50.26
48095;BME280;33874;52.070;-0.516;2023-04-30T09:49:07;101766.20;;;19.26;50.24
48095;BME280;33874;52.070;-0.516;2023-04-30T09:51:52;101768.96;;;19.27;50.24
48095;BME280;33874;52.070;-0.516;2023-04-30T09:54:35;101769.53;;;19.30;50.17
48095;BME280;33874;52.070;-0.516;2023-04-30T09:57:04;101764.48;;;19.34;50.12
48095;BME280;33874;52.070;-0.516;2023-04-30T09:59:42;101767.47;;;19.41;49.80
48095;BME280;33874;52.070;-0.516;2023-04-30T10:02:14;101768.80;;;19.45;49.72
48095;BME280;33874;52.070;-0.516;2023-04-30T10:04:44;101771.46;;;19.45;49.71
48095;BME280;33874;52.070;-0.516;2023-04-30T10:07:18;101771.10;;;19.49;49.64
48095;BME280;33874;52.070;-0.516;2023-04-30T10:12:51;101771.53;;;19.48;49.39
48095;BME280;33874;52.070;-0.516;2023-04-30T10:15:27;101768.89;;;19.46;49.11
48095;BME280;33874;52.070;-0.516;2023-04-30T10:18:01;101768.14;;;19.50;49.46
48095;BME280;33874;52.070;-0.516;2023-04-30T10:20:49;101770.96;;;19.58;49.68
48095;BME280;33874;52.070;-0.516;2023-04-30T10:23:22;101765.96;;;19.70;49.88
48095;BME280;33874;52.070;-0.516;2023-04-30T10:25:55;101761.45;;;19.82;49.78
48095;BME280;33874;52.070;-0.516;2023-04-30T10:28:41;101760.75;;;19.88;49.62
48095;BME280;33874;52.070;-0.516;2023-04-30T10:31:17;101759.39;;;19.95;49.43
48095;BME280;33874;52.070;-0.516;2023-04-30T10:51:58;101741.02;;;20.72;48.29
48095;BME280;33874;52.070;-0.516;2023-04-30T10:54:37;101737.81;;;20.77;48.24
48095;BME280;33874;52.070;-0.516;2023-04-30T11:00:41;101733.90;;;20.84;47.78
48095;BME280;33874;52.070;-0.516;2023-04-30T11:07:16;101729.27;;;20.73;47.12
48095;BME280;33874;52.070;-0.516;2023-04-30T11:09:55;101724.21;;;20.77;47.10
48095;BME280;33874;52.070;-0.516;2023-04-30T11:12:29;101725.25;;;20.85;47.25
48095;BME280;33874;52.070;-0.516;2023-04-30T11:15:11;101720.27;;;20.91;47.00
48095;BME280;33874;52.070;-0.516;2023-04-30T11:18:14;101714.50;;;21.05;47.00
48095;BME280;33874;52.070;-0.516;2023-04-30T11:21:10;101708.82;;;21.19;47.05
48095;BME280;33874;52.070;-0.516;2023-04-30T11:24:52;101710.02;;;21.28;46.79
48095;BME280;33874;52.070;-0.516;2023-04-30T11:27:26;101697.48;;;21.42;46.68
48095;BME280;33874;52.070;-0.516;2023-04-30T11:34:19;101689.20;;;21.47;46.34
48095;BME280;33874;52.070;-0.516;2023-04-30T11:41:39;101678.71;;;21.49;46.02
48095;BME280;33874;52.070;-0.516;2023-04-30T11:44:41;101673.98;;;21.44;45.82
48095;BME280;33874;52.070;-0.516;2023-04-30T11:47:37;101669.92;;;21.46;46.05
48095;BME280;33874;52.070;-0.516;2023-04-30T11:54:36;101667.34;;;21.74;46.04
48095;BME280;33874;52.070;-0.516;2023-04-30T12:00:32;101656.52;;;21.99;45.47
48095;BME280;33874;52.070;-0.516;2023-04-30T12:03:17;101654.34;;;22.07;45.27
48095;BME280;33874;52.070;-0.516;2023-04-30T12:05:51;101650.56;;;22.13;45.08
48095;BME280;33874;52.070;-0.516;2023-04-30T12:08:21;101650.09;;;22.17;44.93
48095;BME280;33874;52.070;-0.516;2023-04-30T12:11:18;101646.98;;;22.18;44.59
48095;BME280;33874;52.070;-0.516;2023-04-30T12:14:31;101647.41;;;22.08;44.41
48095;BME280;33874;52.070;-0.516;2023-04-30T12:20:48;101644.80;;;22.20;44.55
48095;BME280;33874;52.070;-0.516;2023-04-30T12:27:24;101637.60;;;22.46;44.65
48095;BME280;33874;52.070;-0.516;2023-04-30T12:30:10;101634.73;;;22.59;44.44
48095;BME280;33874;52.070;-0.516;2023-04-30T12:32:51;101631.38;;;22.61;43.95
48095;BME280;33874;52.070;-0.516;2023-04-30T12:35:31;101631.50;;;22.59;43.77
48095;BME280;33874;52.070;-0.516;2023-04-30T12:38:12;101629.21;;;22.50;43.62
48095;BME280;33874;52.070;-0.516;2023-04-30T12:44:42;101633.81;;;22.35;43.47
48095;BME280;33874;52.070;-0.516;2023-04-30T12:47:21;101627.56;;;22.32;43.51
48095;BME280;33874;52.070;-0.516;2023-04-30T12:54:35;101619.70;;;22.43;43.55
48095;BME280;33874;52.070;-0.516;2023-04-30T12:57:20;101619.53;;;22.46;43.43
48095;BME280;33874;52.070;-0.516;2023-04-30T13:03:14;101618.02;;;22.52;43.30
48095;BME280;33874;52.070;-0.516;2023-04-30T13:05:49;101619.59;;;22.47;43.13
48095;BME280;33874;52.070;-0.516;2023-04-30T13:08:34;101616.41;;;22.38;42.92
48095;BME280;33874;52.070;-0.516;2023-04-30T13:14:58;101616.70;;;22.10;42.63
48095;BME280;33874;52.070;-0.516;2023-04-30T13:17:34;101613.26;;;21.97;42.56
48095;BME280;33874;52.070;-0.516;2023-04-30T13:20:22;101613.27;;;21.84;42.57
48095;BME280;33874;52.070;-0.516;2023-04-30T13:22:57;101613.36;;;21.71;42.59
48095;BME280;33874;52.070;-0.516;2023-04-30T13:26:24;101608.95;;;21.67;42.99
48095;BME280;33874;52.070;-0.516;2023-04-30T13:29:07;101611.23;;;21.72;43.31
48095;BME280;33874;52.070;-0.516;2023-04-30T13:31:40;101608.69;;;21.74;43.33
48095;BME280;33874;52.070;-0.516;2023-04-30T13:34:23;101607.60;;;21.73;43.21
48095;BME280;33874;52.070;-0.516;2023-04-30T13:37:14;101603.19;;;21.74;43.28
48095;BME280;33874;52.070;-0.516;2023-04-30T13:39:53;101603.17;;;21.73;43.29
48095;BME280;33874;52.070;-0.516;2023-04-30T13:42:24;101600.52;;;21.77;43.38
48095;BME280;33874;52.070;-0.516;2023-04-30T13:44:53;101600.00;;;21.84;43.44
48095;BME280;33874;52.070;-0.516;2023-04-30T13:47:24;101602.14;;;21.92;43.31
48095;BME280;33874;52.070;-0.516;2023-04-30T13:50:28;101600.02;;;21.96;43.00
48095;BME280;33874;52.070;-0.516;2023-04-30T13:53:36;101600.89;;;22.02;43.19
48095;BME280;33874;52.070;-0.516;2023-04-30T13:56:21;101594.27;;;22.01;42.62
48095;BME280;33874;52.070;-0.516;2023-04-30T13:58:51;101593.50;;;21.93;42.43
48095;BME280;33874;52.070;-0.516;2023-04-30T14:01:30;101588.98;;;21.92;42.34
48095;BME280;33874;52.070;-0.516;2023-04-30T14:04:07;101586.25;;;21.94;42.37
48095;BME280;33874;52.070;-0.516;2023-04-30T14:06:55;101581.09;;;22.04;42.33
48095;BME280;33874;52.070;-0.516;2023-04-30T14:09:31;101583.10;;;22.14;42.47
48095;BME280;33874;52.070;-0.516;2023-04-30T14:13:03;101575.67;;;22.33;42.47
48095;BME280;33874;52.070;-0.516;2023-04-30T14:15:38;101574.67;;;22.38;42.23
48095;BME280;33874;52.070;-0.516;2023-04-30T14:18:07;101571.27;;;22.42;42.27
48095;BME280;33874;52.070;-0.516;2023-04-30T14:20:41;101568.84;;;22.41;41.97
48095;BME280;33874;52.070;-0.516;2023-04-30T14:23:15;101568.17;;;22.41;42.06
48095;BME280;33874;52.070;-0.516;2023-04-30T14:26:03;101567.19;;;22.42;42.21
48095;BME280;33874;52.070;-0.516;2023-04-30T14:29:01;101562.38;;;22.43;42.15
48095;BME280;33874;52.070;-0.516;2023-04-30T14:31:35;101557.42;;;22.37;41.91
48095;BME280;33874;52.070;-0.516;2023-04-30T14:34:13;101555.64;;;22.24;42.03
48095;BME280;33874;52.070;-0.516;2023-04-30T14:40:27;101557.80;;;22.04;41.89
48095;BME280;33874;52.070;-0.516;2023-04-30T14:42:59;101561.41;;;21.82;41.74
48095;BME280;33874;52.070;-0.516;2023-04-30T14:45:51;101559.29;;;21.64;42.07
48095;BME280;33874;52.070;-0.516;2023-04-30T14:48:22;101557.17;;;21.53;42.25
48095;BME280;33874;52.070;-0.516;2023-04-30T14:50:54;101556.02;;;21.48;42.31
48095;BME280;33874;52.070;-0.516;2023-04-30T14:53:24;101554.38;;;21.45;42.47
48095;BME280;33874;52.070;-0.516;2023-04-30T14:55:59;101549.65;;;21.43;42.52
48095;BME280;33874;52.070;-0.516;2023-04-30T14:58:49;101549.52;;;21.42;42.67
48095;BME280;33874;52.070;-0.516;2023-04-30T15:02:04;101544.48;;;21.40;42.68
48095;BME280;33874;52.070;-0.516;2023-04-30T15:05:05;101538.65;;;21.42;42.72
48095;BME280;33874;52.070;-0.516;2023-04-30T15:07:35;101537.86;;;21.40;42.64
48095;BME280;33874;52.070;-0.516;2023-04-30T15:10:07;101537.04;;;21.38;42.74
48095;BME280;33874;52.070;-0.516;2023-04-30T15:12:43;101533.79;;;21.35;42.55
48095;BME280;33874;52.070;-0.516;2023-04-30T15:15:50;101529.73;;;21.33;42.79
48095;BME280;33874;52.070;-0.516;2023-04-30T15:18:21;101525.66;;;21.36;42.84
48095;BME280;33874;52.070;-0.516;2023-04-30T15:21:24;101520.88;;;21.38;42.94
48095;BME280;33874;52.070;-0.516;2023-04-30T15:24:58;101519.20;;;21.46;43.10
48095;BME280;33874;52.070;-0.516;2023-04-30T15:59:12;101504.36;;;21.28;45.35
48095;BME280;33874;52.070;-0.516;2023-04-30T16:06:10;101498.77;;;20.99;45.19
48095;BME280;33874;52.070;-0.516;2023-04-30T16:09:02;101498.27;;;20.89;45.48
48095;BME280;33874;52.070;-0.516;2023-04-30T16:12:33;101497.56;;;20.79;45.41
48095;BME280;33874;52.070;-0.516;2023-04-30T16:16:22;101502.00;;;20.74;45.64
48095;BME280;33874;52.070;-0.516;2023-04-30T16:23:03;101500.15;;;20.43;45.54
48095;BME280;33874;52.070;-0.516;2023-04-30T16:29:42;101497.14;;;20.15;46.11
48095;BME280;33874;52.070;-0.516;2023-04-30T16:32:28;101498.06;;;20.00;46.35
48095;BME280;33874;52.070;-0.516;2023-04-30T16:35:34;101499.05;;;19.77;46.50
48095;BME280;33874;52.070;-0.516;2023-04-30T16:46:00;101504.21;;;19.23;47.40
48095;BME280;33874;52.070;-0.516;2023-04-30T16:49:01;101503.16;;;19.19;47.61
48095;BME280;33874;52.070;-0.516;2023-04-30T16:51:58;101499.98;;;19.06;47.83
48095;BME280;33874;52.070;-0.516;2023-04-30T16:55:37;101497.68;;;18.83;48.12
48095;BME280;33874;52.070;-0.516;2023-04-30T17:06:53;101494.94;;;18.74;48.70
48095;BME280;33874;52.070;-0.516;2023-04-30T17:10:04;101490.49;;;18.72;48.93
48095;BME280;33874;52.070;-0.516;2023-04-30T17:13:09;101495.80;;;18.65;49.02
48095;BME280;33874;52.070;-0.516;2023-04-30T17:15:55;101490.80;;;18.59;49.05
48095;BME280;33874;52.070;-0.516;2023-04-30T17:26:57;101480.02;;;18.01;49.91
48095;BME280;33874;52.070;-0.516;2023-04-30T17:49:16;101463.81;;;17.53;50.75
48095;BME280;33874;52.070;-0.516;2023-04-30T18:11:21;101461.23;;;16.81;51.59
48095;BME280;33874;52.070;-0.516;2023-04-30T18:14:32;101464.05;;;16.69;51.94
48095;BME280;33874;52.070;-0.516;2023-04-30T18:37:07;101461.85;;;15.95;52.75
48095;BME280;33874;52.070;-0.516;2023-04-30T18:51:51;101463.09;;;15.63;52.86
48095;BME280;33874;52.070;-0.516;2023-04-30T18:55:33;101460.31;;;15.55;53.03
48095;BME280;33874;52.070;-0.516;2023-04-30T18:58:18;101459.31;;;15.55;53.11
48095;BME280;33874;52.070;-0.516;2023-04-30T19:01:16;101457.77;;;15.52;53.12
48095;BME280;33874;52.070;-0.516;2023-04-30T19:04:45;101463.33;;;15.48;53.28
48095;BME280;33874;52.070;-0.516;2023-04-30T19:19:10;101470.73;;;15.20;54.04
48095;BME280;33874;52.070;-0.516;2023-04-30T19:22:46;101474.31;;;15.16;54.41
48095;BME280;33874;52.070;-0.516;2023-04-30T19:26:59;101475.46;;;15.11;54.59
48095;BME280;33874;52.070;-0.516;2023-04-30T19:30:06;101471.52;;;15.04;54.89
48095;BME280;33874;52.070;-0.516;2023-04-30T19:48:47;101482.08;;;14.48;55.36
48095;BME280;33874;52.070;-0.516;2023-04-30T19:51:54;101485.70;;;14.43;55.68
48095;BME280;33874;52.070;-0.516;2023-04-30T20:07:08;101488.32;;;14.37;56.50
48095;BME280;33874;52.070;-0.516;2023-04-30T20:10:11;101490.86;;;14.36;56.61
48095;BME280;33874;52.070;-0.516;2023-04-30T20:20:48;101487.33;;;14.30;57.20
48095;BME280;33874;52.070;-0.516;2023-04-30T20:31:29;101481.77;;;14.25;57.80
48095;BME280;33874;52.070;-0.516;2023-04-30T20:34:40;101479.88;;;14.23;57.96
48095;BME280;33874;52.070;-0.516;2023-04-30T20:38:07;101475.58;;;14.19;58.27
48095;BME280;33874;52.070;-0.516;2023-04-30T20:41:06;101476.41;;;14.18;58.56
48095;BME280;33874;52.070;-0.516;2023-04-30T20:59:03;101476.56;;;13.96;59.56
48095;BME280;33874;52.070;-0.516;2023-04-30T21:05:55;101472.39;;;13.83;60.02
48095;BME280;33874;52.070;-0.516;2023-04-30T21:09:12;101470.09;;;13.81;60.21
48095;BME280;33874;52.070;-0.516;2023-04-30T21:12:01;101475.22;;;13.81;60.52
48095;BME280;33874;52.070;-0.516;2023-04-30T21:15:23;101478.41;;;13.79;60.58
48095;BME280;33874;52.070;-0.516;2023-04-30T21:18:21;101475.43;;;13.75;60.85
48095;BME280;33874;52.070;-0.516;2023-04-30T21:21:00;101477.23;;;13.66;61.01
48095;BME280;33874;52.070;-0.516;2023-04-30T21:40:59;101455.23;;;13.49;62.29
48095;BME280;33874;52.070;-0.516;2023-04-30T21:44:15;101450.00;;;13.51;62.38
48095;BME280;33874;52.070;-0.516;2023-04-30T21:50:58;101450.63;;;13.47;62.56
48095;BME280;33874;52.070;-0.516;2023-04-30T21:54:36;101446.38;;;13.45;62.72
48095;BME280;33874;52.070;-0.516;2023-04-30T21:58:07;101442.73;;;13.43;62.77
48095;BME280;33874;52.070;-0.516;2023-04-30T22:09:32;101429.80;;;13.41;63.14
48095;BME280;33874;52.070;-0.516;2023-04-30T22:12:42;101423.62;;;13.43;63.13
48095;BME280;33874;52.070;-0.516;2023-04-30T22:15:51;101420.10;;;13.44;63.16
48095;BME280;33874;52.070;-0.516;2023-04-30T22:34:42;101412.80;;;13.43;63.56
48095;BME280;33874;52.070;-0.516;2023-04-30T22:38:09;101411.44;;;13.43;63.51
48095;BME280;33874;52.070;-0.516;2023-04-30T22:53:08;101410.53;;;13.31;64.00
48095;BME280;33874;52.070;-0.516;2023-04-30T22:59:49;101407.89;;;13.29;64.26
48095;BME280;33874;52.070;-0.516;2023-04-30T23:53:55;101382.89;;;12.74;67.14
